Capitol Logistics 590




ZSPD
Shanghai Pudong International Airport
Shanghai, CN
RJAA
Tokyo-Narita International Airport
Tokyo, JP

Route Details

Aircraft Information
Group: Trans-Pacific Ops
Types: B744,B763,MD11
Route Data
Demand: M
Distance: 971nm
Duration: 2h 50m
Recm'd Route: LAM01D LAMEN SADLI Y590 BEDAR Y591 FUE Y23 KASTE Y81 ISEBI Y43 MENUR Y21 AKSEL RUTAS RUTAST
Origin Wx: ZSPD 270530Z 08005MPS 050V110 CAVOK 28/19 Q1006 NOSIG
Dest. Wx: RJAA 270530Z 14009KT 100V180 9999 FEW010 BKN015 BKN/// 23/20 Q0997 NOSIG RMK 2CU010 5CU015 A2945
Notes:

Financial History
Total Freight: 150,239lbs
Average Load: 75,120lbs/flt
Fuel Used: 45,214lbs
Avg. Fuel Used: 22,607lbs/flt
Fuel Expense: $11,880
Avg. Fuel Expense: $5,940
Avg. Fuel Cost: $0.26/lbs
Total Gross Income: $375,447
Pilot Pay: $498
Total Expenses: $52,969
Total Revenue: $309,473
Average Revenue: $187,723.63